weather.gov     
National Weather Service

Terminal Aerodrome Forecast
NWS Homepage
This page is being discontinued on March 12, 2014.
The same data is available at this site. Please update your bookmarks.
Thank you, and we apologize for the inconvenience.
Please send an email to SR-SRH.Webmaster@noaa.gov with any concerns.


Current Version
Previous Version:    01  02  03  04  05  06  07  08  09  10  11  12  13  14  15  16  17  18  19  20  21  22  23  24  25  
[Printable]
914
FTUS46 KSEW 210500
TAFHQM
TAF
KHQM 210520Z 2106/2206 05005KT P6SM SCT050 OVC080
     FM210900 16008KT P6SM BKN030 OVC050
     FM211100 10005KT P6SM -SHRA BKN030 OVC050
     FM211900 22009KT P6SM VCSH BKN035 BKN050
     FM220300 28006KT P6SM OVC025=


U.S. Dept. of Commerce
NOAA National Weather Service
1325 East West Highway
Silver Spring, MD 20910
E-mail: w-nws.webmaster@noaa.gov
Page last modified: May 16, 2007
NATIONAL WEATHER SERVICE: for Safety, for Work, for Fun - FOR LIFE